Flight Track Log - Related Links

Times and Time Zones

All times are in EDT time to prevent confusion due to time zone crossing. See the TCF3494 flight status page for this flight to view local times or setup timezone preferences in your user account.

Time Position Orientation Groundspeed Altitude Reporting Facility
EDT Latitude Longitude Course Direction KTS MPH feet Rate Location/Type
Wed 08:20:15 PM 42.0167 -87.9333 90° East 190 219 2,200  Level Chicago TRACON
Wed 08:21:15 PM 42.0667 -87.8833 37° Northeast 256 295 3,800 2,211 Climbing Chicago TRACON
Wed 08:22:09 PM 42.1333 -87.8167 37° Northeast 287 330 6,400 3,053 Climbing Chicago TRACON
Wed 08:23:09 PM 42.1667 -87.7333 62° Northeast 299 344 9,600 2,711 Climbing Chicago TRACON
Wed 08:24:24 PM 42.1408 -87.6089 106° East 305 351 12,500 1,927 Climbing Chicago Center
Wed 08:25:00 PM 41.9667 -87.0430 90° East  Level FlightAware Approximate
Wed 08:25:26 PM 42.1006 -87.4967 116° Southeast 328 377 14,000  Level Chicago Center
Wed 08:26:28 PM 42.0550 -87.3686 116° Southeast 372 428 15,800 1,824 Climbing Chicago Center
Wed 08:27:31 PM 42.0081 -87.2383 116° Southeast 386 444 17,800 1,680 Climbing Chicago Center
Wed 08:28:33 PM 41.9597 -87.1042 116° Southeast 397 457 19,300 1,790 Climbing Chicago Center
Wed 08:29:35 PM 41.9469 -86.9239 95° East 413 475 21,500 1,790 Climbing Chicago Center
Wed 08:30:37 PM 41.9492 -86.7658 89° East 422 486 23,000 1,016 Climbing Chicago Center
Wed 08:31:39 PM 41.9514 -86.6225 89° East 433 498 23,600 1,113 Climbing Chicago Center
Wed 08:32:41 PM 41.9525 -86.4272 89° East 435 501 25,300 1,452 Climbing Chicago Center
Wed 08:33:43 PM 41.9550 -86.2614 89° East 443 510 26,600 1,210 Climbing Chicago Center
Wed 08:34:45 PM 41.9444 -86.0931 95° East 451 519 27,800 1,065 Climbing Chicago Center
Wed 08:35:47 PM 41.9286 -85.9244 97° East 453 521 28,800 581 Climbing Chicago Center
Wed 08:36:49 PM 41.9128 -85.7522 97° East 460 529 29,000 581 Climbing Chicago Center
Wed 08:37:51 PM 41.8969 -85.5808 97° East 461 531 30,000 1,161 Climbing Chicago Center
Wed 08:38:53 PM 41.8811 -85.4100 97° East 458 527 31,400 1,248 Climbing Chicago Center
Wed 08:39:56 PM 41.8600 -85.2056 98° East 456 525 32,600 768 Climbing Chicago Center
Wed 08:40:58 PM 41.8433 -85.0333 97° East 460 529 33,000 629 Climbing Chicago Center
Wed 08:42:00 PM 41.8247 -84.8586 98° East 466 536 33,900 823 Climbing Chicago Center
Wed 08:43:02 PM 41.8056 -84.6856 98° East 469 540 34,700 702 Climbing Chicago Center
Wed 08:43:34 PM 41.7961 -84.5858 97° East 464 534 35,000 196 Climbing Cleveland Center
Wed 08:44:34 PM 41.7814 -84.4067 96° East 464 534 35,000  Level Cleveland Center
Wed 08:45:34 PM 41.7742 -84.2503 93° East 469 540 35,000  Level Cleveland Center
Wed 08:46:34 PM 41.7736 -84.0664 90° East 469 540 35,000  Level Cleveland Center
Wed 08:47:33 PM 41.7706 -83.8881 91° East 475 547 35,000  Level Cleveland Center
Wed 08:48:33 PM 41.7692 -83.7097 91° East 480 552 35,000  Level Cleveland Center
Wed 08:49:34 PM 41.7636 -83.5286 92° East 480 552 35,000  Level Cleveland Center
Wed 08:50:34 PM 41.7492 -83.3525 96° East 480 552 35,000  Level Cleveland Center
Wed 08:51:33 PM 41.7328 -83.1708 97° East 480 552 35,000  Level Cleveland Center
Wed 08:52:33 PM 41.7136 -82.9950 98° East 480 552 35,000  Level Cleveland Center
Wed 08:53:33 PM 41.6942 -82.8161 98° East 480 552 35,000  Level Cleveland Center
Wed 08:54:34 PM 41.6767 -82.6403 98° East 488 562 35,000  Level Cleveland Center
Wed 08:55:34 PM 41.6572 -82.4425 97° East 488 562 35,000  Level Cleveland Center
Wed 08:56:34 PM 41.6411 -82.2697 97° East 482 555 35,000  Level Cleveland Center
Wed 08:57:33 PM 41.6206 -82.0914 99° East 487 560 35,000  Level Cleveland Center
Wed 08:58:33 PM 41.6000 -81.9075 98° East 487 560 35,000  Level Cleveland Center
Wed 08:59:34 PM 41.5850 -81.7492 97° East 481 554 35,000  Level Cleveland Center
Wed 09:00:33 PM 41.5658 -81.5739 98° East 487 560 35,000  Level Cleveland Center
Wed 09:01:34 PM 41.5444 -81.3961 99° East 487 560 35,000  Level Cleveland Center
Wed 09:02:34 PM 41.5206 -81.1989 99° East 487 560 35,000  Level Cleveland Center
Wed 09:03:33 PM 41.5047 -81.0211 97° East 487 560 35,000  Level Cleveland Center
Wed 09:04:33 PM 41.4886 -80.8464 97° East 482 555 35,000  Level Cleveland Center
Wed 09:05:33 PM 41.4722 -80.6664 97° East 482 555 35,000  Level Cleveland Center
Wed 09:06:34 PM 41.4556 -80.4917 97° East 475 547 35,000  Level Cleveland Center
Wed 09:07:34 PM 41.4406 -80.3144 96° East 475 547 35,000  Level Cleveland Center
Wed 09:08:33 PM 41.4233 -80.1372 97° East 481 554 35,000  Level Cleveland Center
Wed 09:09:34 PM 41.4058 -79.9631 98° East 481 554 35,000  Level Cleveland Center
Wed 09:10:34 PM 41.3903 -79.7861 97° East 481 554 35,000  Level Cleveland Center
Wed 09:11:34 PM 41.3700 -79.6036 98° East 488 562 35,000  Level Cleveland Center
Wed 09:12:33 PM 41.3539 -79.4269 97° East 488 562 35,000  Level Cleveland Center
Wed 09:13:34 PM 41.3353 -79.2503 98° East 488 562 35,000  Level Cleveland Center
Wed 09:14:33 PM 41.3164 -79.0736 98° East 483 556 35,000  Level Cleveland Center
Wed 09:15:34 PM 41.2992 -78.8917 97° East 483 556 35,000  Level Cleveland Center
Wed 09:16:33 PM 41.2797 -78.7153 98° East 483 556 35,000  Level Cleveland Center
Wed 09:17:33 PM 41.2600 -78.5392 98° East 483 556 35,000 -340 Level Cleveland Center
Wed 09:18:54 PM 41.2358 -78.3147 98° East 508 585 34,200 -845 Descending New York Center
Wed 09:19:55 PM 41.2136 -78.1383 99° East 503 579 33,000 -590 Descending New York Center
Wed 09:20:56 PM 41.1911 -77.9594 99° East 498 573 33,000  Level New York Center
Wed 09:21:56 PM 41.1686 -77.7806 99° East 488 562 33,000  Level New York Center
Wed 09:22:54 PM 41.1475 -77.6075 99° East 488 562 33,000  Level New York Center
Wed 09:23:55 PM 41.1242 -77.4314 100° East 488 562 33,000 -50 Level New York Center
Wed 09:24:55 PM 41.0992 -77.2417 100° East 488 562 32,900 -1,240 Descending New York Center
Wed 09:25:56 PM 41.0756 -77.0633 100° East 482 555 30,500 -2,521 Descending New York Center
Wed 09:26:54 PM 41.0514 -76.8850 100° East 482 555 27,900 -2,571 Descending New York Center
Wed 09:27:55 PM 41.0267 -76.7175 101° East 481 554 25,400 -2,164 Descending New York Center
Wed 09:28:56 PM 41.0019 -76.5833 104° East 471 542 23,500 -2,281 Descending New York Center
Wed 09:29:56 PM 40.9586 -76.4011 107° East 456 525 20,800 -2,542 Descending New York Center
Wed 09:30:54 PM 40.9275 -76.2694 107° East 430 495 18,500 -1,966 Descending New York Center
Wed 09:31:55 PM 40.8925 -76.1239 108° East 418 481 16,900 -1,537 Descending New York Center
Wed 09:32:55 PM 40.8569 -75.9839 109° East 410 472 15,400 -1,587 Descending New York Center
Wed 09:33:56 PM 40.8219 -75.8331 107° East 400 460 13,700 -1,210 Descending New York Center
Wed 09:34:54 PM 40.7881 -75.6964 108° East 393 452 13,000 -353 Descending New York Center
Wed 09:35:55 PM 40.7539 -75.5622 109° East 393 452 13,000  Level New York Center
Wed 09:36:55 PM 40.7236 -75.4369 108° East 393 452 13,000 -252 Level New York Center
Wed 09:37:54 PM 40.6919 -75.2842 105° East 393 452 12,500 -555 Descending New York Center
Wed 09:38:54 PM 40.6617 -75.1483 106° East 388 447 11,900 -639 Descending New York Center
Wed 09:39:56 PM 40.5964 -75.0539 132° Southeast 371 427 11,200 -900 Descending New York Center
Wed 09:40:54 PM 40.5467 -74.9333 118° Southeast 384 442 10,100 -605 Descending New York Center
Wed 09:41:55 PM 40.5056 -74.7944 111° Southeast 379 436 10,000 -49 Descending New York Center
Wed 09:42:56 PM 40.4678 -74.6775 113° Southeast 373 429 10,000  Level New York Center
Wed 09:43:54 PM 40.4364 -74.5558 109° East 367 422 10,000 -650 Level New York Center
Wed 09:44:56 PM 40.4542 -74.4503 77° East 319 367 8,700 -1,000 Descending New York Center
Wed 09:45:54 PM 40.4825 -74.3456 70° East 283 326 8,000 -356 Descending New York Center
Wed 09:46:54 PM 40.5061 -74.2567 71° East 282 325 8,000 -400 Level New York Center
Wed 09:47:54 PM 40.5319 -74.1489 72° East 282 325 7,200 -1,289 Descending New York Center
Wed 09:48:55 PM 40.5614 -74.0656 65° Northeast 282 325 5,400 -1,574 Descending New York Center
Wed 09:49:56 PM 40.6394 -74.0364 16° North 245 282 4,000 -706 Descending New York Center
Wed 09:50:54 PM 40.7044 -74.0231 North 260 299 4,000 -508 Level New York Center
Wed 09:51:54 PM 40.7725 -73.9689 31° Northeast 260 299 3,000 -496 Descending New York Center
Wed 09:52:55 PM 40.8322 -73.9142 35° Northeast 261 300 3,000 -149 Level New York Center
Wed 09:53:55 PM 40.8794 -73.8642 39° Northeast 237 273 2,700 -592 Descending New York Center
Wed 09:55:17 PM 40.8500 -73.8167 129° Southeast 158 182 1,600 -805 Descending New York TRACON

Login

Don't have an account? Register now (free) for customized features, flight alerts, and more!